createdAt,value
2018-04-12T00:00:10.732Z,0
2018-04-12T00:01:10.600Z,0
2018-04-12T00:02:10.274Z,0
2018-04-12T00:03:10.544Z,0
2018-04-12T00:04:10.575Z,0
2018-04-12T00:05:10.852Z,0
2018-04-12T00:06:10.638Z,0
2018-04-12T00:07:10.380Z,0
2018-04-12T00:08:10.151Z,0
2018-04-12T00:09:10.425Z,0
2018-04-12T00:10:10.723Z,0
2018-04-12T00:11:10.531Z,0
2018-04-12T00:12:10.761Z,0
2018-04-12T00:13:10.786Z,0
2018-04-12T00:14:10.803Z,0
2018-04-12T00:15:10.590Z,0
2018-04-12T00:16:10.850Z,0
2018-04-12T00:17:10.630Z,0
2018-04-12T00:18:10.899Z,0
2018-04-12T00:19:10.914Z,0
2018-04-12T00:20:10.940Z,0
2018-04-12T00:21:10.977Z,0
2018-04-12T00:22:10.986Z,0
2018-04-12T00:23:10.758Z,0
2018-04-12T00:24:11.008Z,0
2018-04-12T00:25:10.787Z,0
2018-04-12T00:26:11.057Z,0
2018-04-12T00:27:11.080Z,0
2018-04-12T00:28:10.858Z,0
2018-04-12T00:29:10.961Z,0
2018-04-12T00:30:11.197Z,0
2018-04-12T00:31:11.221Z,0
2018-04-12T00:32:11.016Z,0
2018-04-12T00:33:11.253Z,0
2018-04-12T00:34:11.273Z,0
2018-04-12T00:35:11.297Z,0
2018-04-12T00:36:11.324Z,0
2018-04-12T00:37:11.338Z,0
2018-04-12T00:38:10.853Z,0
2018-04-12T00:39:11.381Z,0
2018-04-12T00:40:11.661Z,0
2018-04-12T00:41:11.186Z,0
2018-04-12T00:42:10.954Z,0
2018-04-12T00:43:11.755Z,0
2018-04-12T00:44:11.558Z,0
2018-04-12T00:45:11.531Z,0
2018-04-12T00:46:11.294Z,0
2018-04-12T00:47:11.319Z,0
2018-04-12T00:48:11.621Z,0
2018-04-12T00:49:11.362Z,0
2018-04-12T00:50:11.384Z,0
2018-04-12T00:51:11.680Z,0
2018-04-12T00:52:11.682Z,0
2018-04-12T00:53:11.964Z,0
2018-04-12T00:54:11.988Z,0
2018-04-12T00:55:11.761Z,0
2018-04-12T00:56:11.522Z,0
2018-04-12T00:57:12.052Z,0
2018-04-12T00:58:11.808Z,0
2018-04-12T00:59:12.142Z,0
2018-04-12T01:00:12.136Z,0
2018-04-12T01:01:12.148Z,0
2018-04-12T01:02:11.666Z,0
2018-04-12T01:03:11.686Z,0
2018-04-12T01:04:11.709Z,0
2018-04-12T01:05:12.248Z,0
2018-04-12T01:06:12.012Z,0
2018-04-12T01:07:11.769Z,0
2018-04-12T01:08:11.546Z,0
2018-04-12T01:09:12.370Z,0
2018-04-12T01:10:12.085Z,0
2018-04-12T01:11:12.102Z,0
2018-04-12T01:12:12.376Z,0
2018-04-12T01:13:11.897Z,0
2018-04-12T01:14:12.429Z,0
2018-04-12T01:15:11.981Z,0
2018-04-12T01:16:12.214Z,0
2018-04-12T01:17:12.000Z,0
2018-04-12T01:18:12.566Z,0
2018-04-12T01:19:12.567Z,0
2018-04-12T01:20:12.068Z,0
2018-04-12T01:21:12.604Z,0
2018-04-12T01:22:12.115Z,0
2018-04-12T01:23:12.397Z,0
2018-04-12T01:24:12.715Z,0
2018-04-12T01:25:12.441Z,0
2018-04-12T01:26:12.204Z,0
2018-04-12T01:27:12.785Z,0
2018-04-12T01:28:12.511Z,0
2018-04-12T01:29:12.274Z,0
2018-04-12T01:30:12.548Z,0
2018-04-12T01:31:12.576Z,0
2018-04-12T01:32:12.344Z,0
2018-04-12T01:33:12.618Z,0
2018-04-12T01:34:12.899Z,0
2018-04-12T01:35:12.669Z,0
2018-04-12T01:36:12.431Z,0
2018-04-12T01:37:12.986Z,0
2018-04-12T01:38:12.478Z,0
2018-04-12T01:39:12.288Z,0
2018-04-12T01:40:12.515Z,0
2018-04-12T01:41:12.819Z,0
2018-04-12T01:42:13.130Z,0
2018-04-12T01:43:12.843Z,0
2018-04-12T01:44:12.858Z,0
2018-04-12T01:45:12.883Z,0
2018-04-12T01:46:13.170Z,0
2018-04-12T01:47:12.929Z,0
2018-04-12T01:48:12.954Z,0
2018-04-12T01:49:12.970Z,0
2018-04-12T01:50:12.740Z,0
2018-04-12T01:51:13.276Z,0
2018-04-12T01:52:12.545Z,0
2018-04-12T01:53:12.637Z,0
2018-04-12T01:54:12.879Z,0
2018-04-12T01:55:12.843Z,0
2018-04-12T01:56:13.120Z,0
2018-04-12T01:57:13.019Z,0
2018-04-12T01:58:12.655Z,0
2018-04-12T01:59:13.190Z,0
2018-04-12T02:00:13.465Z,0
2018-04-12T02:01:13.231Z,0
2018-04-12T02:02:12.997Z,0
2018-04-12T02:03:13.269Z,0
2018-04-12T02:04:13.553Z,0
2018-04-12T02:05:12.824Z,0
2018-04-12T02:06:13.361Z,0
2018-04-12T02:07:13.097Z,0
2018-04-12T02:08:13.628Z,0
2018-04-12T02:09:13.741Z,0
2018-04-12T02:10:13.455Z,0
2018-04-12T02:11:13.473Z,0
2018-04-12T02:12:13.484Z,0
2018-04-12T02:13:13.521Z,0
2018-04-12T02:14:13.787Z,0
2018-04-12T02:15:13.643Z,0
2018-04-12T02:16:13.856Z,0
2018-04-12T02:17:13.619Z,0
2018-04-12T02:18:14.047Z,0
2018-04-12T02:19:13.664Z,0
2018-04-12T02:20:13.675Z,0
2018-04-12T02:21:13.696Z,0
2018-04-12T02:22:13.962Z,0
2018-04-12T02:23:13.993Z,0
2018-04-12T02:24:14.010Z,0
2018-04-12T02:25:13.839Z,0
2018-04-12T02:26:14.074Z,0
2018-04-12T02:27:14.074Z,0
2018-04-12T02:28:13.603Z,0
2018-04-12T02:29:14.120Z,0
2018-04-12T02:30:14.210Z,0
2018-04-12T02:31:13.915Z,0
2018-04-12T02:32:13.955Z,0
2018-04-12T02:33:13.969Z,0
2018-04-12T02:34:14.241Z,0
2018-04-12T02:35:14.120Z,0
2018-04-12T02:36:14.048Z,0
2018-04-12T02:37:13.792Z,0
2018-04-12T02:38:14.325Z,0
2018-04-12T02:39:14.091Z,0
2018-04-12T02:40:14.155Z,0
2018-04-12T02:41:13.868Z,0
2018-04-12T02:42:14.395Z,0
2018-04-12T02:43:14.172Z,0
2018-04-12T02:44:13.686Z,0
2018-04-12T02:45:14.216Z,0
2018-04-12T02:46:14.500Z,0
2018-04-12T02:47:14.266Z,0
2018-04-12T02:48:14.023Z,0
2018-04-12T02:49:14.067Z,0
2018-04-12T02:50:14.342Z,0
2018-04-12T02:51:14.668Z,0
2018-04-12T02:52:14.405Z,0
2018-04-12T02:53:14.661Z,0
2018-04-12T02:54:14.697Z,0
2018-04-12T02:55:14.496Z,0
2018-04-12T02:56:14.473Z,0
2018-04-12T02:57:14.493Z,0
2018-04-12T02:58:14.770Z,0
2018-04-12T02:59:14.791Z,0
2018-04-12T03:00:14.865Z,0
2018-04-12T03:01:14.603Z,0
2018-04-12T03:02:14.341Z,0
2018-04-12T03:03:14.880Z,0
2018-04-12T03:04:14.647Z,0
2018-04-12T03:05:14.718Z,0
2018-04-12T03:06:14.689Z,0
2018-04-12T03:07:14.703Z,0
2018-04-12T03:08:14.997Z,0
2018-04-12T03:09:14.509Z,0
2018-04-12T03:10:14.518Z,0
2018-04-12T03:11:15.106Z,0
2018-04-12T03:12:14.817Z,0
2018-04-12T03:13:14.581Z,0
2018-04-12T03:14:14.899Z,0
2018-04-12T03:15:15.135Z,0
2018-04-12T03:16:14.885Z,0
2018-04-12T03:17:14.934Z,0
2018-04-12T03:18:14.935Z,0
2018-04-12T03:19:15.210Z,0
2018-04-12T03:20:14.986Z,0
2018-04-12T03:21:15.259Z,0
2018-04-12T03:22:15.282Z,0
2018-04-12T03:23:14.790Z,0
2018-04-12T03:24:14.565Z,0
2018-04-12T03:25:15.353Z,0
2018-04-12T03:26:15.404Z,0
2018-04-12T03:27:15.372Z,0
2018-04-12T03:28:15.393Z,0
2018-04-12T03:29:15.164Z,0
2018-04-12T03:30:15.209Z,0
2018-04-12T03:31:15.462Z,0
2018-04-12T03:32:15.229Z,0
2018-04-12T03:33:15.264Z,0
2018-04-12T03:34:15.017Z,0
2018-04-12T03:35:15.344Z,0
2018-04-12T03:36:15.590Z,0
2018-04-12T03:37:15.379Z,0
2018-04-12T03:38:15.125Z,0
2018-04-12T03:39:15.142Z,0
2018-04-12T03:40:15.704Z,0
2018-04-12T03:41:15.487Z,0
2018-04-12T03:42:15.695Z,0
2018-04-12T03:43:15.740Z,0
2018-04-12T03:44:15.757Z,0
2018-04-12T03:45:15.542Z,0
2018-04-12T03:46:15.299Z,0
2018-04-12T03:47:15.065Z,0
2018-04-12T03:48:15.858Z,0
2018-04-12T03:49:15.616Z,0
2018-04-12T03:50:15.641Z,0
2018-04-12T03:51:15.668Z,0
2018-04-12T03:52:15.942Z,0
2018-04-12T03:53:15.449Z,0
2018-04-12T03:54:15.739Z,0
2018-04-12T03:55:16.004Z,0
2018-04-12T03:56:16.157Z,0
2018-04-12T03:57:16.032Z,0
2018-04-12T03:58:15.795Z,0
2018-04-12T03:59:16.065Z,0
2018-04-12T04:00:15.855Z,0
2018-04-12T04:01:16.123Z,0
2018-04-12T04:02:15.881Z,0
2018-04-12T04:03:16.156Z,0
2018-04-12T04:04:16.172Z,0
2018-04-12T04:05:16.213Z,0
2018-04-12T04:06:16.243Z,0
2018-04-12T04:07:16.006Z,0
2018-04-12T04:08:16.031Z,0
2018-04-12T04:09:16.299Z,0
2018-04-12T04:10:16.077Z,0
2018-04-12T04:11:16.163Z,0
2018-04-12T04:12:16.116Z,0
2018-04-12T04:13:16.397Z,0
2018-04-12T04:14:15.911Z,0
2018-04-12T04:15:16.180Z,0
2018-04-12T04:16:16.466Z,0
2018-04-12T04:17:16.224Z,0
2018-04-12T04:18:15.730Z,0
2018-04-12T04:19:16.512Z,0
2018-04-12T04:20:16.535Z,0
2018-04-12T04:21:16.578Z,0
2018-04-12T04:22:16.079Z,0
2018-04-12T04:23:16.343Z,0
2018-04-12T04:24:16.624Z,0
2018-04-12T04:25:16.391Z,0
2018-04-12T04:26:16.712Z,0
2018-04-12T04:27:16.444Z,0
2018-04-12T04:28:15.961Z,0
2018-04-12T04:29:16.475Z,0
2018-04-12T04:30:16.500Z,5
2018-04-12T04:31:16.775Z,5
2018-04-12T04:32:16.846Z,5
2018-04-12T04:33:16.825Z,5
2018-04-12T04:34:16.857Z,5
2018-04-12T04:35:16.868Z,5
2018-04-12T04:36:16.879Z,5
2018-04-12T04:37:16.904Z,10
2018-04-12T04:38:16.680Z,10
2018-04-12T04:39:16.701Z,10
2018-04-12T04:40:16.217Z,10
2018-04-12T04:41:17.045Z,15
2018-04-12T04:42:16.774Z,15
2018-04-12T04:43:17.051Z,15
2018-04-12T04:44:17.093Z,15
2018-04-12T04:45:16.827Z,20
2018-04-12T04:46:16.854Z,20
2018-04-12T04:47:17.142Z,20
2018-04-12T04:48:16.994Z,20
2018-04-12T04:49:17.177Z,20
2018-04-12T04:50:17.199Z,20
2018-04-12T04:51:16.703Z,25
2018-04-12T04:52:17.242Z,25
2018-04-12T04:53:17.258Z,25
2018-04-12T04:54:17.031Z,25
2018-04-12T04:55:17.052Z,25
2018-04-12T04:56:16.871Z,30
2018-04-12T04:57:16.601Z,30
2018-04-12T04:58:17.367Z,30
2018-04-12T04:59:17.127Z,30
2018-04-12T05:00:16.912Z,35
2018-04-12T05:01:16.925Z,35
2018-04-12T05:02:16.935Z,35
2018-04-12T05:03:17.466Z,35
2018-04-12T05:04:17.241Z,40
2018-04-12T05:05:17.275Z,40
2018-04-12T05:06:17.592Z,40
2018-04-12T05:07:17.456Z,45
2018-04-12T05:08:17.579Z,45
2018-04-12T05:09:17.602Z,45
2018-04-12T05:10:17.120Z,45
2018-04-12T05:11:17.397Z,50
2018-04-12T05:12:17.667Z,50
2018-04-12T05:13:17.693Z,50
2018-04-12T05:14:17.750Z,60
2018-04-12T05:15:17.226Z,60
2018-04-12T05:16:17.753Z,65
2018-04-12T05:17:17.274Z,65
2018-04-12T05:18:17.796Z,65
2018-04-12T05:19:17.577Z,70
2018-04-12T05:20:17.591Z,70
2018-04-12T05:21:17.656Z,70
2018-04-12T05:22:17.627Z,75
2018-04-12T05:23:17.908Z,75
2018-04-12T05:24:17.673Z,75
2018-04-12T05:25:17.944Z,75
2018-04-12T05:26:17.711Z,80
2018-04-12T05:27:17.483Z,80
2018-04-12T05:28:18.080Z,80
2018-04-12T05:29:17.778Z,85
2018-04-12T05:30:17.546Z,85
2018-04-12T05:31:17.827Z,85
2018-04-12T05:32:17.845Z,85
2018-04-12T05:33:18.219Z,90
2018-04-12T05:34:17.399Z,90
2018-04-12T05:35:17.678Z,90
2018-04-12T05:36:17.682Z,95
2018-04-12T05:37:17.709Z,95
2018-04-12T05:38:17.981Z,95
2018-04-12T05:39:18.002Z,100
2018-04-12T05:40:17.766Z,100
2018-04-12T05:41:17.794Z,100
2018-04-12T05:42:18.075Z,105
2018-04-12T05:43:18.395Z,105
2018-04-12T05:44:18.111Z,110
2018-04-12T05:45:18.131Z,110
2018-04-12T05:46:18.165Z,115
2018-04-12T05:47:18.166Z,115
2018-04-12T05:48:17.927Z,115
2018-04-12T05:49:18.234Z,115
2018-04-12T05:50:17.991Z,115
2018-04-12T05:51:18.025Z,120
2018-04-12T05:52:18.543Z,120
2018-04-12T05:53:18.052Z,120
2018-04-12T05:54:18.332Z,125
2018-04-12T05:55:18.349Z,125
2018-04-12T05:56:18.380Z,125
2018-04-12T05:57:18.398Z,130
2018-04-12T05:58:18.736Z,130
2018-04-12T05:59:18.180Z,130
2018-04-12T06:00:18.710Z,130
2018-04-12T06:01:18.219Z,135
2018-04-12T06:02:18.758Z,135
2018-04-12T06:03:18.588Z,135
2018-04-12T06:04:18.804Z,135
2018-04-12T06:05:18.315Z,135
2018-04-12T06:06:18.086Z,135
2018-04-12T06:07:18.882Z,140
2018-04-12T06:08:18.385Z,140
2018-04-12T06:09:18.146Z,140
2018-04-12T06:10:18.678Z,140
2018-04-12T06:11:18.700Z,140
2018-04-12T06:12:18.701Z,140
2018-04-12T06:13:19.049Z,140
2018-04-12T06:14:18.751Z,150
2018-04-12T06:15:18.519Z,145
2018-04-12T06:16:19.043Z,145
2018-04-12T06:17:18.564Z,145
2018-04-12T06:18:18.897Z,145
2018-04-12T06:19:19.118Z,150
2018-04-12T06:20:19.136Z,150
2018-04-12T06:21:19.183Z,150
2018-04-12T06:22:18.926Z,150
2018-04-12T06:23:18.699Z,150
2018-04-12T06:24:18.970Z,155
2018-04-12T06:25:19.011Z,155
2018-04-12T06:26:19.034Z,155
2018-04-12T06:27:18.809Z,155
2018-04-12T06:28:19.340Z,160
2018-04-12T06:29:18.850Z,160
2018-04-12T06:30:19.386Z,160
2018-04-12T06:31:19.157Z,160
2018-04-12T06:32:19.172Z,165
2018-04-12T06:33:19.005Z,165
2018-04-12T06:34:19.214Z,165
2018-04-12T06:35:19.504Z,165
2018-04-12T06:36:19.014Z,165
2018-04-12T06:37:19.546Z,170
2018-04-12T06:38:19.056Z,170
2018-04-12T06:39:19.586Z,170
2018-04-12T06:40:19.365Z,170
2018-04-12T06:41:19.641Z,175
2018-04-12T06:42:19.148Z,175
2018-04-12T06:43:19.494Z,175
2018-04-12T06:44:19.454Z,175
2018-04-12T06:45:19.499Z,175
2018-04-12T06:46:19.495Z,175
2018-04-12T06:47:19.778Z,180
2018-04-12T06:48:19.278Z,180
2018-04-12T06:49:19.551Z,180
2018-04-12T06:50:19.846Z,185
2018-04-12T06:51:19.864Z,185
2018-04-12T06:52:19.882Z,185
2018-04-12T06:53:19.393Z,185
2018-04-12T06:54:19.427Z,190
2018-04-12T06:55:19.701Z,190
2018-04-12T06:56:19.720Z,190
2018-04-12T06:57:19.759Z,190
2018-04-12T06:58:19.816Z,190
2018-04-12T06:59:19.794Z,195
2018-04-12T07:00:19.808Z,195
2018-04-12T07:01:19.833Z,195
2018-04-12T07:02:19.857Z,195
2018-04-12T07:03:19.631Z,200
2018-04-12T07:04:20.151Z,195
2018-04-12T07:05:20.189Z,200
2018-04-12T07:06:19.956Z,200
2018-04-12T07:07:19.969Z,205
2018-04-12T07:08:19.996Z,205
2018-04-12T07:09:20.289Z,210
2018-04-12T07:10:20.036Z,215
2018-04-12T07:11:20.323Z,215
2018-04-12T07:12:20.350Z,210
2018-04-12T07:13:20.424Z,225
2018-04-12T07:14:19.885Z,225
2018-04-12T07:15:20.417Z,230
2018-04-12T07:16:20.122Z,235
2018-04-12T07:17:20.000Z,240
2018-04-12T07:18:20.477Z,210
2018-04-12T07:19:20.395Z,210
2018-04-12T07:20:20.304Z,190
2018-04-12T07:21:20.549Z,245
2018-04-12T07:22:20.066Z,245
2018-04-12T07:23:20.607Z,285
2018-04-12T07:24:20.372Z,270
2018-04-12T07:25:20.649Z,295
2018-04-12T07:26:20.149Z,285
2018-04-12T07:27:19.919Z,300
2018-04-12T07:28:20.245Z,300
2018-04-12T07:29:20.490Z,240
2018-04-12T07:30:20.501Z,220
2018-04-12T07:31:20.804Z,210
2018-04-12T07:32:20.862Z,200
2018-04-12T07:33:20.822Z,215
2018-04-12T07:34:20.850Z,275
2018-04-12T07:35:20.895Z,270
2018-04-12T07:36:20.668Z,245
2018-04-12T07:37:20.938Z,260
2018-04-12T07:38:21.031Z,270
2018-04-12T07:39:20.732Z,280
2018-04-12T07:40:20.750Z,290
2018-04-12T07:41:21.052Z,305
2018-04-12T07:42:20.804Z,315
2018-04-12T07:43:20.892Z,305
2018-04-12T07:44:20.875Z,220
2018-04-12T07:45:21.137Z,220
2018-04-12T07:46:20.647Z,250
2018-04-12T07:47:20.941Z,225
2018-04-12T07:48:20.698Z,230
2018-04-12T07:49:21.238Z,270
2018-04-12T07:50:21.259Z,265
2018-04-12T07:51:21.278Z,300
2018-04-12T07:52:21.055Z,265
2018-04-12T07:53:21.333Z,270
2018-04-12T07:54:21.110Z,280
2018-04-12T07:55:21.131Z,275
2018-04-12T07:56:21.410Z,260
2018-04-12T07:57:20.665Z,255
2018-04-12T07:58:21.508Z,250
2018-04-12T07:59:21.226Z,245
2018-04-12T08:00:21.303Z,245
2018-04-12T08:01:21.026Z,245
2018-04-12T08:02:21.317Z,245
2018-04-12T08:03:21.332Z,245
2018-04-12T08:04:21.622Z,250
2018-04-12T08:05:21.379Z,250
2018-04-12T08:06:21.663Z,250
2018-04-12T08:07:21.691Z,250
2018-04-12T08:08:21.462Z,250
2018-04-12T08:09:20.971Z,255
2018-04-12T08:10:20.996Z,255
2018-04-12T08:11:21.594Z,250
2018-04-12T08:12:21.296Z,250
2018-04-12T08:13:21.638Z,250
2018-04-12T08:14:21.342Z,250
2018-04-12T08:15:21.890Z,250
2018-04-12T08:16:22.147Z,250
2018-04-12T08:17:21.404Z,255
2018-04-12T08:18:21.464Z,255
2018-04-12T08:19:21.475Z,255
2018-04-12T08:20:22.016Z,255
2018-04-12T08:21:21.537Z,255
2018-04-12T08:22:21.564Z,260
2018-04-12T08:23:21.590Z,260
2018-04-12T08:24:21.866Z,260
2018-04-12T08:25:21.638Z,260
2018-04-12T08:26:21.660Z,255
2018-04-12T08:27:22.191Z,255
2018-04-12T08:28:22.018Z,255
2018-04-12T08:29:21.991Z,260
2018-04-12T08:30:22.086Z,255
2018-04-12T08:31:22.044Z,260
2018-04-12T08:32:22.335Z,255
2018-04-12T08:33:21.844Z,270
2018-04-12T08:34:21.866Z,275
2018-04-12T08:35:22.400Z,280
2018-04-12T08:36:22.171Z,295
2018-04-12T08:37:22.211Z,305
2018-04-12T08:38:21.972Z,305
2018-04-12T08:39:22.258Z,315
2018-04-12T08:40:22.302Z,320
2018-04-12T08:41:22.303Z,330
2018-04-12T08:42:22.330Z,340
2018-04-12T08:43:22.152Z,350
2018-04-12T08:44:22.642Z,360
2018-04-12T08:45:22.668Z,365
2018-04-12T08:46:22.433Z,360
2018-04-12T08:47:22.483Z,370
2018-04-12T08:48:22.292Z,375
2018-04-12T08:49:22.515Z,355
2018-04-12T08:50:22.825Z,365
2018-04-12T08:51:22.574Z,355
2018-04-12T08:52:22.596Z,355
2018-04-12T08:53:22.893Z,345
2018-04-12T08:54:22.907Z,350
2018-04-12T08:55:22.943Z,355
2018-04-12T08:56:22.706Z,360
2018-04-12T08:57:23.040Z,365
2018-04-12T08:58:22.820Z,385
2018-04-12T08:59:23.033Z,395
2018-04-12T09:00:23.071Z,375
2018-04-12T09:01:23.020Z,370
2018-04-12T09:02:23.116Z,385
2018-04-12T09:03:23.157Z,375
2018-04-12T09:04:22.927Z,365
2018-04-12T09:05:22.698Z,355
2018-04-12T09:06:23.229Z,350
2018-04-12T09:07:22.993Z,345
2018-04-12T09:08:22.767Z,340
2018-04-12T09:09:23.271Z,340
2018-04-12T09:10:23.057Z,335
2018-04-12T09:11:23.085Z,330
2018-04-12T09:12:22.602Z,330
2018-04-12T09:13:23.433Z,330
2018-04-12T09:14:23.168Z,330
2018-04-12T09:15:23.187Z,330
2018-04-12T09:16:22.968Z,340
2018-04-12T09:17:23.244Z,340
2018-04-12T09:18:23.269Z,345
2018-04-12T09:19:23.551Z,385
2018-04-12T09:20:23.672Z,375
2018-04-12T09:21:23.388Z,385
2018-04-12T09:22:23.664Z,395
2018-04-12T09:23:23.439Z,415
2018-04-12T09:24:23.718Z,480
2018-04-12T09:25:23.503Z,485
2018-04-12T09:26:23.769Z,485
2018-04-12T09:27:23.809Z,460
2018-04-12T09:28:23.728Z,480
2018-04-12T09:29:23.850Z,480
2018-04-12T09:30:23.626Z,480
2018-04-12T09:31:23.655Z,500
2018-04-12T09:32:23.688Z,700
2018-04-12T09:33:23.325Z,700
2018-04-12T09:34:23.751Z,655
2018-04-12T09:35:23.777Z,655
2018-04-12T09:36:23.554Z,565
2018-04-12T09:37:24.088Z,540
2018-04-12T09:38:23.867Z,485
2018-04-12T09:39:23.900Z,475
2018-04-12T09:40:23.435Z,460
2018-04-12T09:41:24.352Z,485
2018-04-12T09:42:23.991Z,480
2018-04-12T09:43:24.073Z,485
2018-04-12T09:44:24.045Z,545
2018-04-12T09:45:24.333Z,640
2018-04-12T09:46:24.499Z,540
2018-04-12T09:47:24.131Z,560
2018-04-12T09:48:24.500Z,580
2018-04-12T09:49:24.936Z,540
2018-04-12T09:50:24.471Z,480
2018-04-12T09:51:23.989Z,465
2018-04-12T09:52:24.529Z,670
2018-04-12T09:53:24.048Z,720
2018-04-12T09:54:24.591Z,700
2018-04-12T09:55:24.620Z,650
2018-04-12T09:56:24.653Z,615
2018-04-12T09:57:24.679Z,590
2018-04-12T09:58:24.202Z,575
2018-04-12T09:59:24.757Z,555
2018-04-12T10:00:24.262Z,555
2018-04-12T10:01:24.576Z,560
2018-04-12T10:02:24.381Z,585
2018-04-12T10:03:24.865Z,570
2018-04-12T10:04:24.641Z,525
2018-04-12T10:05:24.939Z,475
2018-04-12T10:06:24.960Z,485
2018-04-12T10:07:24.480Z,490
2018-04-12T10:08:25.024Z,480
2018-04-12T10:09:24.295Z,470
2018-04-12T10:10:25.091Z,450
2018-04-12T10:11:24.604Z,440
2018-04-12T10:12:24.890Z,450
2018-04-12T10:13:24.920Z,450
2018-04-12T10:14:24.699Z,475
2018-04-12T10:15:24.731Z,510
2018-04-12T10:16:24.764Z,595
2018-04-12T10:17:25.219Z,560
2018-04-12T10:18:24.825Z,685
2018-04-12T10:19:25.373Z,665
2018-04-12T10:20:25.396Z,525
2018-04-12T10:21:25.167Z,525
2018-04-12T10:22:25.454Z,540
2018-04-12T10:23:25.230Z,595
2018-04-12T10:24:25.525Z,480
2018-04-12T10:25:25.552Z,420
2018-04-12T10:26:25.322Z,450
2018-04-12T10:27:25.098Z,540
2018-04-12T10:28:25.381Z,700
2018-04-12T10:29:25.431Z,650
2018-04-12T10:30:25.702Z,665
2018-04-12T10:31:25.730Z,630
2018-04-12T10:32:25.809Z,600
2018-04-12T10:33:25.793Z,605
2018-04-12T10:34:25.828Z,530
2018-04-12T10:35:25.602Z,470
2018-04-12T10:36:25.431Z,450
2018-04-12T10:37:25.659Z,445
2018-04-12T10:38:25.689Z,450
2018-04-12T10:39:25.834Z,480
2018-04-12T10:40:25.762Z,575
2018-04-12T10:41:26.038Z,615
2018-04-12T10:42:26.118Z,590
2018-04-12T10:43:25.594Z,560
2018-04-12T10:44:26.054Z,520
2018-04-12T10:45:26.158Z,510
2018-04-12T10:46:25.938Z,470
2018-04-12T10:47:25.458Z,465
2018-04-12T10:48:26.270Z,465
2018-04-12T10:49:26.027Z,460
2018-04-12T10:50:26.322Z,470
2018-04-12T10:51:25.830Z,490
2018-04-12T10:52:26.113Z,560
2018-04-12T10:53:26.176Z,620
2018-04-12T10:54:26.174Z,600
2018-04-12T10:55:25.703Z,555
2018-04-12T10:56:26.494Z,595
2018-04-12T10:57:26.322Z,485
2018-04-12T10:58:26.305Z,605
2018-04-12T10:59:26.536Z,735
2018-04-12T11:00:26.611Z,690
2018-04-12T11:01:26.636Z,770
2018-04-12T11:02:26.415Z,795
2018-04-12T11:03:26.307Z,810
2018-04-12T11:04:26.498Z,800
2018-04-12T11:05:26.535Z,755
2018-04-12T11:06:26.561Z,665
2018-04-12T11:07:26.599Z,595
2018-04-12T11:08:26.888Z,545
2018-04-12T11:09:26.658Z,625
2018-04-12T11:10:26.181Z,665
2018-04-12T11:11:26.730Z,645
2018-04-12T11:12:26.658Z,705
2018-04-12T11:13:27.027Z,910
2018-04-12T11:14:26.559Z,930
2018-04-12T11:15:26.843Z,895
2018-04-12T11:16:26.898Z,740
2018-04-12T11:17:27.199Z,575
2018-04-12T11:18:27.595Z,550
2018-04-12T11:19:26.741Z,545
2018-04-12T11:20:27.032Z,490
2018-04-12T11:21:27.073Z,450
2018-04-12T11:22:26.846Z,440
2018-04-12T11:23:27.548Z,450
2018-04-12T11:24:26.918Z,440
2018-04-12T11:25:27.059Z,440
2018-04-12T11:26:26.973Z,450
2018-04-12T11:27:27.257Z,480
2018-04-12T11:28:27.033Z,550
2018-04-12T11:29:27.480Z,610
2018-04-12T11:30:27.621Z,685
2018-04-12T11:31:27.176Z,710
2018-04-12T11:32:27.176Z,615
2018-04-12T11:33:27.759Z,795
2018-04-12T11:34:27.750Z,745
2018-04-12T11:35:27.906Z,725
2018-04-12T11:36:27.804Z,560
2018-04-12T11:37:27.841Z,555
2018-04-12T11:38:27.367Z,595
2018-04-12T11:39:27.397Z,910
2018-04-12T11:40:27.478Z,930
2018-04-12T11:41:27.462Z,710
2018-04-12T11:42:28.003Z,590
2018-04-12T11:43:27.789Z,545
2018-04-12T11:44:28.115Z,510
2018-04-12T11:45:27.708Z,455
2018-04-12T11:46:27.870Z,445
2018-04-12T11:47:27.659Z,450
2018-04-12T11:48:27.930Z,470
2018-04-12T11:49:27.728Z,510
2018-04-12T11:50:28.289Z,590
2018-04-12T11:51:28.311Z,645
2018-04-12T11:52:28.330Z,720
2018-04-12T11:53:27.859Z,570
2018-04-12T11:54:28.143Z,690
2018-04-12T11:55:28.201Z,655
2018-04-12T11:56:27.969Z,830
2018-04-12T11:57:27.981Z,910
2018-04-12T11:58:28.012Z,745
2018-04-12T11:59:28.354Z,710
2018-04-12T12:00:28.336Z,750
2018-04-12T12:01:28.104Z,775
2018-04-12T12:02:28.539Z,940
2018-04-12T12:03:28.221Z,770
2018-04-12T12:04:28.705Z,695
2018-04-12T12:05:28.504Z,705
2018-04-12T12:06:28.774Z,1370
2018-04-12T12:07:28.809Z,1260
2018-04-12T12:08:28.590Z,960
2018-04-12T12:09:28.873Z,1450
2018-04-12T12:10:28.649Z,1075
2018-04-12T12:11:28.422Z,1125
2018-04-12T12:12:29.020Z,1050
2018-04-12T12:13:28.746Z,1000
2018-04-12T12:14:28.833Z,1200
2018-04-12T12:15:28.835Z,830
2018-04-12T12:16:29.100Z,795
2018-04-12T12:17:28.880Z,765
2018-04-12T12:18:28.665Z,740
2018-04-12T12:19:28.940Z,855
2018-04-12T12:20:29.216Z,880
2018-04-12T12:21:28.998Z,970
2018-04-12T12:22:29.042Z,1135
2018-04-12T12:23:29.068Z,1035
2018-04-12T12:24:29.094Z,1070
2018-04-12T12:25:29.144Z,695
2018-04-12T12:26:29.444Z,805
2018-04-12T12:27:29.470Z,900
2018-04-12T12:28:29.275Z,650
2018-04-12T12:29:29.334Z,700
2018-04-12T12:30:29.575Z,1215
2018-04-12T12:31:29.347Z,1745
2018-04-12T12:32:29.382Z,1935
2018-04-12T12:33:29.668Z,1210
2018-04-12T12:34:29.490Z,1035
2018-04-12T12:35:29.476Z,1070
2018-04-12T12:36:29.262Z,1725
2018-04-12T12:37:29.296Z,2080
2018-04-12T12:38:29.582Z,2360
2018-04-12T12:39:29.616Z,1640
2018-04-12T12:40:29.647Z,1910
2018-04-12T12:41:29.931Z,1385
2018-04-12T12:42:29.715Z,1320
2018-04-12T12:43:30.061Z,1230
2018-04-12T12:44:30.091Z,1250
2018-04-12T12:45:30.089Z,1065
2018-04-12T12:46:29.602Z,1120
2018-04-12T12:47:29.644Z,2180
2018-04-12T12:48:29.674Z,2505
2018-04-12T12:49:29.456Z,2500
2018-04-12T12:50:29.972Z,2445
2018-04-12T12:51:29.750Z,2150
2018-04-12T12:52:30.310Z,2070
2018-04-12T12:53:30.336Z,2155
2018-04-12T12:54:30.416Z,2185
2018-04-12T12:55:30.405Z,2335
2018-04-12T12:56:30.464Z,2275
2018-04-12T12:57:30.497Z,2190
2018-04-12T12:58:30.535Z,1755
2018-04-12T12:59:30.080Z,1660
2018-04-12T13:00:30.094Z,1795
2018-04-12T13:01:30.497Z,1835
2018-04-12T13:02:30.673Z,1435
2018-04-12T13:03:30.204Z,1420
2018-04-12T13:04:30.491Z,790
2018-04-12T13:05:30.536Z,1240
2018-04-12T13:06:30.562Z,1145
2018-04-12T13:07:30.598Z,1165
2018-04-12T13:08:30.893Z,820
2018-04-12T13:09:30.460Z,760
2018-04-12T13:10:30.959Z,925
2018-04-12T13:11:30.993Z,1075
2018-04-12T13:12:31.051Z,815
2018-04-12T13:13:30.954Z,2010
2018-04-12T13:14:31.109Z,2800
2018-04-12T13:15:30.624Z,3035
2018-04-12T13:16:30.664Z,1540
2018-04-12T13:17:30.953Z,1190
2018-04-12T13:18:30.983Z,775
2018-04-12T13:19:30.837Z,670
2018-04-12T13:20:31.310Z,585
2018-04-12T13:21:30.817Z,550
2018-04-12T13:22:31.113Z,515
2018-04-12T13:23:30.885Z,505
2018-04-12T13:24:31.487Z,495
2018-04-12T13:25:31.482Z,500
2018-04-12T13:26:31.579Z,520
2018-04-12T13:27:31.292Z,530
2018-04-12T13:28:31.590Z,525
2018-04-12T13:29:31.099Z,530
2018-04-12T13:30:31.686Z,530
2018-04-12T13:31:31.160Z,530
2018-04-12T13:32:31.716Z,535
2018-04-12T13:33:31.492Z,555
2018-04-12T13:34:31.767Z,575
2018-04-12T13:35:31.299Z,595
2018-04-12T13:36:31.887Z,630
2018-04-12T13:37:31.869Z,665
2018-04-12T13:38:31.659Z,760
2018-04-12T13:39:31.167Z,1195
2018-04-12T13:40:31.968Z,1520
2018-04-12T13:41:31.255Z,1310
2018-04-12T13:42:31.773Z,1190
2018-04-12T13:43:31.804Z,1050
2018-04-12T13:44:31.332Z,1220
2018-04-12T13:45:32.159Z,1320
2018-04-12T13:46:31.913Z,1625
2018-04-12T13:47:31.961Z,1935
2018-04-12T13:48:32.240Z,1865
2018-04-12T13:49:32.282Z,1920
2018-04-12T13:50:32.030Z,1855
2018-04-12T13:51:32.363Z,2155
2018-04-12T13:52:31.848Z,1870
2018-04-12T13:53:32.128Z,2015
2018-04-12T13:54:31.907Z,2150
2018-04-12T13:55:32.190Z,2035
2018-04-12T13:56:32.479Z,1895
2018-04-12T13:57:32.268Z,2000
2018-04-12T13:58:32.037Z,2200
2018-04-12T13:59:32.590Z,1050
2018-04-12T14:00:32.612Z,1830
2018-04-12T14:01:32.399Z,1190
2018-04-12T14:02:32.231Z,1010
2018-04-12T14:03:32.714Z,870
2018-04-12T14:04:32.245Z,860